createdAt,value
2022-08-10T00:00:51.660Z,400.2963
2022-08-10T00:05:53.472Z,374.76923
2022-08-10T00:10:55.152Z,365.91781
2022-08-10T00:15:56.754Z,360.21622
2022-08-10T00:20:58.495Z,374.76923
2022-08-10T00:26:00.118Z,368.82759
2022-08-10T00:31:01.797Z,374.76923
2022-08-10T00:36:03.464Z,349.26316
2022-08-10T00:41:05.076Z,351.94702
2022-08-10T00:46:07.687Z,351.94702
2022-08-10T00:51:09.303Z,357.42282
2022-08-10T00:57:14.443Z,351.94702
2022-08-10T01:02:20.081Z,387.16547
2022-08-10T01:07:21.696Z,396.94118
2022-08-10T01:12:38.561Z,421.51938
2022-08-10T01:17:50.535Z,436.8
2022-08-10T01:22:52.985Z,475.03448
2022-08-10T01:27:54.571Z,475.03448
2022-08-10T01:32:56.198Z,440.77419
2022-08-10T01:37:57.812Z,453.09091
2022-08-10T01:43:07.415Z,436.8
2022-08-10T01:48:16.387Z,457.33333
2022-08-10T01:53:18.715Z,444.81301
2022-08-10T01:58:20.351Z,425.25
2022-08-10T02:03:21.965Z,417.84615
2022-08-10T02:08:23.600Z,417.84615
2022-08-10T02:13:25.249Z,400.2963
2022-08-10T02:18:26.950Z,444.81301
2022-08-10T02:23:28.620Z,519.70093
2022-08-10T02:28:31.268Z,489.13274
2022-08-10T02:33:33.019Z,466.0339
2022-08-10T02:38:59.203Z,461.64706
2022-08-10T02:45:20.482Z,475.03448
2022-08-10T02:50:26.853Z,498.95495
2022-08-10T02:55:32.412Z,525.13208
2022-08-10T03:00:34.282Z,514.37037
2022-08-10T03:05:35.974Z,547.92157
2022-08-10T03:10:39.643Z,519.70093
2022-08-10T03:15:41.643Z,466.0339
2022-08-10T03:20:43.264Z,484.35088
2022-08-10T03:25:52.998Z,542.05825
2022-08-10T03:30:56.247Z,479.65217
2022-08-10T03:36:40.527Z,504
2022-08-10T03:41:47.817Z,429.03937
2022-08-10T03:46:55.323Z,414.22901
2022-08-10T03:51:56.935Z,403.70149
2022-08-10T03:57:00.405Z,380.87943
2022-08-10T04:02:44.857Z,380.87943
2022-08-10T04:07:49.825Z,371.77778
2022-08-10T04:12:51.495Z,407.15789
2022-08-10T04:17:59.446Z,410.66667
2022-08-10T04:23:07.139Z,425.25
2022-08-10T04:28:08.787Z,457.33333
2022-08-10T04:33:10.422Z,448.91803
2022-08-10T04:38:12.020Z,448.91803
2022-08-10T04:43:13.771Z,429.03937
2022-08-10T04:48:43.135Z,440.77419
2022-08-10T04:54:05.454Z,421.51938
2022-08-10T04:59:08.631Z,425.25
2022-08-10T05:04:38.540Z,421.51938
2022-08-10T05:10:04.751Z,425.25
2022-08-10T05:15:07.659Z,429.03937
2022-08-10T05:20:09.313Z,417.84615
2022-08-10T05:25:11.117Z,407.15789
2022-08-10T05:30:13.575Z,371.77778
2022-08-10T05:35:15.415Z,354.66667
2022-08-10T05:40:17.194Z,387.16547
2022-08-10T05:45:18.766Z,351.94702
2022-08-10T05:50:20.400Z,360.21622
2022-08-10T05:55:22.014Z,354.66667
2022-08-10T06:00:36.826Z,357.42282
2022-08-10T06:05:40.904Z,371.77778
2022-08-10T06:12:23.156Z,377.80282
2022-08-10T06:17:28.038Z,346.61438
2022-08-10T06:22:29.689Z,363.04762
2022-08-10T06:27:34.869Z,360.21622
2022-08-10T06:32:36.730Z,365.91781
2022-08-10T06:37:38.553Z,368.82759
2022-08-10T06:42:40.194Z,360.21622
2022-08-10T06:47:41.989Z,368.82759
2022-08-10T06:52:43.591Z,357.42282
2022-08-10T06:57:45.252Z,357.42282
2022-08-10T07:03:02.018Z,363.04762
2022-08-10T07:08:08.967Z,371.77778
2022-08-10T07:13:10.612Z,360.21622
2022-08-10T07:18:12.235Z,357.42282
2022-08-10T07:23:55.982Z,360.21622
2022-08-10T07:29:00.949Z,368.82759
2022-08-10T07:34:02.544Z,374.76923
2022-08-10T07:39:04.146Z,363.04762
2022-08-10T07:44:05.987Z,371.77778
2022-08-10T07:49:17.023Z,384
2022-08-10T07:54:21.349Z,371.77778
2022-08-10T07:59:23.000Z,377.80282
2022-08-10T08:04:24.566Z,371.77778
2022-08-10T08:09:26.184Z,374.76923
2022-08-10T08:14:27.810Z,374.76923
2022-08-10T08:19:37.907Z,368.82759
2022-08-10T08:24:47.708Z,360.21622
2022-08-10T08:29:49.315Z,363.04762
2022-08-10T08:34:50.950Z,360.21622
2022-08-10T08:39:53.748Z,371.77778
2022-08-10T08:44:55.403Z,371.77778
2022-08-10T08:50:08.780Z,380.87943
2022-08-10T08:56:04.155Z,384
2022-08-10T09:01:08.645Z,396.94118
2022-08-10T09:06:10.290Z,374.76923
2022-08-10T09:11:11.877Z,374.76923
2022-08-10T09:16:13.563Z,368.82759
2022-08-10T09:21:15.148Z,371.77778
2022-08-10T09:26:16.835Z,371.77778
2022-08-10T09:31:22.508Z,363.04762
2022-08-10T09:36:32.156Z,371.77778
2022-08-10T09:41:35.802Z,380.87943
2022-08-10T09:46:37.471Z,377.80282
2022-08-10T09:51:45.896Z,363.04762
2022-08-10T09:56:48.683Z,368.82759
2022-08-10T10:02:02.959Z,390.37681
2022-08-10T10:07:05.855Z,403.70149
2022-08-10T10:12:09.831Z,380.87943
2022-08-10T10:17:11.847Z,380.87943
2022-08-10T10:22:13.474Z,380.87943
2022-08-10T10:27:16.128Z,371.77778
2022-08-10T10:32:18.465Z,363.04762
2022-08-10T10:37:20.092Z,360.21622
2022-08-10T10:43:01.787Z,363.04762
2022-08-10T10:48:03.522Z,363.04762
2022-08-10T10:53:05.253Z,357.42282
2022-08-10T10:58:06.885Z,351.94702
2022-08-10T11:03:08.507Z,357.42282
2022-08-10T11:08:14.470Z,360.21622
2022-08-10T11:14:27.427Z,360.21622
2022-08-10T11:20:00.450Z,354.66667
2022-08-10T11:25:04.775Z,360.21622
2022-08-10T11:30:06.376Z,380.87943
2022-08-10T11:35:11.437Z,365.91781
2022-08-10T11:40:14.139Z,357.42282
2022-08-10T11:45:15.909Z,346.61438
2022-08-10T11:50:17.505Z,351.94702
2022-08-10T11:55:19.227Z,341.41935
2022-08-10T12:00:20.854Z,360.21622
2022-08-10T12:05:23.771Z,360.21622
2022-08-10T12:10:44.895Z,354.66667
2022-08-10T12:15:46.525Z,354.66667
2022-08-10T12:20:48.338Z,357.42282
2022-08-10T12:25:56.055Z,357.42282
2022-08-10T12:30:59.948Z,357.42282
2022-08-10T12:36:18.044Z,354.66667
2022-08-10T12:41:41.636Z,346.61438
2022-08-10T12:46:46.736Z,346.61438
2022-08-10T12:51:49.844Z,341.41935
2022-08-10T12:56:51.530Z,344
2022-08-10T13:02:09.653Z,346.61438
2022-08-10T13:08:05.300Z,351.94702
2022-08-10T13:13:27.922Z,349.26316
2022-08-10T13:18:29.552Z,344
2022-08-10T13:23:31.214Z,344
2022-08-10T13:28:37.300Z,349.26316
2022-08-10T13:34:41.189Z,344
2022-08-10T13:39:58.929Z,336.35669
2022-08-10T13:45:02.127Z,338.87179
2022-08-10T13:50:03.773Z,338.87179
2022-08-10T13:55:06.724Z,329
2022-08-10T14:00:37.332Z,308.49704
2022-08-10T14:05:39.807Z,310.66667
2022-08-10T14:11:09.843Z,310.66667
2022-08-10T14:16:13.749Z,319.60976
2022-08-10T14:21:15.357Z,315.08434
2022-08-10T14:26:16.924Z,300.06936
2022-08-10T14:31:21.809Z,310.66667
2022-08-10T14:36:24.631Z,317.33333
2022-08-10T14:42:03.074Z,308.49704
2022-08-10T14:47:52.560Z,360.21622
2022-08-10T14:52:56.679Z,336.35669
2022-08-10T14:58:20.124Z,336.35669
2022-08-10T15:03:59.379Z,374.76923
2022-08-10T15:09:04.299Z,371.77778
2022-08-10T15:14:34.224Z,354.66667
2022-08-10T15:20:03.459Z,341.41935
2022-08-10T15:25:06.681Z,344
2022-08-10T15:30:21.449Z,344
2022-08-10T15:35:25.659Z,336.35669
2022-08-10T15:40:30.757Z,349.26316
2022-08-10T15:45:34.076Z,357.42282
2022-08-10T15:50:35.691Z,365.91781
2022-08-10T15:55:45.530Z,374.76923
2022-08-10T16:00:47.477Z,354.66667
2022-08-10T16:06:02.346Z,344
2022-08-10T16:11:04.935Z,351.94702
2022-08-10T16:16:06.600Z,338.87179
2022-08-10T16:21:08.411Z,341.41935
2022-08-10T16:26:14.713Z,349.26316
2022-08-10T16:31:17.288Z,338.87179
2022-08-10T16:36:18.937Z,329
2022-08-10T16:42:03.940Z,338.87179
2022-08-10T16:47:07.493Z,338.87179
2022-08-10T16:52:09.097Z,344
2022-08-10T16:57:10.721Z,331.42138
2022-08-10T17:02:12.442Z,312.86228
2022-08-10T17:07:14.031Z,306.35294
2022-08-10T17:12:15.651Z,300.06936
2022-08-10T17:17:17.292Z,312.86228
2022-08-10T17:22:18.905Z,310.66667
2022-08-10T17:28:04.947Z,312.86228
2022-08-10T17:33:11.226Z,312.86228
2022-08-10T17:38:12.850Z,306.35294
2022-08-10T17:43:14.458Z,315.08434
2022-08-10T17:49:00.449Z,333.87342
2022-08-10T17:54:02.114Z,331.42138
2022-08-10T17:59:07.196Z,310.66667
2022-08-10T18:04:11.634Z,329
2022-08-10T18:09:13.283Z,346.61438
2022-08-10T18:14:14.898Z,351.94702
2022-08-10T18:19:16.542Z,349.26316
2022-08-10T18:24:18.188Z,317.33333
2022-08-10T18:29:19.808Z,312.86228
2022-08-10T18:34:21.419Z,324.24691
2022-08-10T18:39:23.137Z,329
2022-08-10T18:44:24.802Z,331.42138
2022-08-10T18:49:27.914Z,351.94702
2022-08-10T18:54:39.029Z,349.26316
2022-08-10T19:00:07.609Z,357.42282
2022-08-10T19:05:31.415Z,368.82759
2022-08-10T19:10:33.994Z,360.21622
2022-08-10T19:15:35.959Z,354.66667
2022-08-10T19:20:37.680Z,363.04762
2022-08-10T19:26:37.871Z,357.42282
2022-08-10T19:31:47.013Z,354.66667
2022-08-10T19:36:48.622Z,349.26316
2022-08-10T19:41:54.298Z,349.26316
2022-08-10T19:46:56.371Z,346.61438
2022-08-10T19:51:58.016Z,344
2022-08-10T19:57:02.130Z,351.94702
2022-08-10T20:02:04.099Z,349.26316
2022-08-10T20:07:05.789Z,354.66667
2022-08-10T20:12:07.426Z,351.94702
2022-08-10T20:17:09.061Z,338.87179
2022-08-10T20:22:10.810Z,326.6087
2022-08-10T20:27:57.826Z,329
2022-08-10T20:33:02.618Z,324.24691
2022-08-10T20:38:04.840Z,344
2022-08-10T20:43:06.913Z,377.80282
2022-08-10T20:48:08.580Z,400.2963
2022-08-10T20:53:10.194Z,410.66667
2022-08-10T20:58:12.080Z,384
2022-08-10T21:03:15.916Z,414.22901
2022-08-10T21:08:23.085Z,384
2022-08-10T21:13:24.692Z,407.15789
2022-08-10T21:18:26.413Z,425.25
2022-08-10T21:25:42.236Z,429.03937
2022-08-10T21:30:44.202Z,417.84615
2022-08-10T21:35:45.831Z,436.8
2022-08-10T21:41:17.401Z,421.51938
2022-08-10T21:46:21.052Z,417.84615
2022-08-10T21:51:24.640Z,466.0339
2022-08-10T21:57:02.777Z,484.35088
2022-08-10T22:02:04.589Z,444.81301
2022-08-10T22:07:06.252Z,448.91803
2022-08-10T22:12:10.890Z,448.91803
2022-08-10T22:18:10.153Z,466.0339
2022-08-10T22:31:26.095Z,470.49573
2022-08-10T22:36:31.215Z,457.33333
2022-08-10T22:41:32.824Z,410.66667
2022-08-10T22:46:34.421Z,425.25
2022-08-10T22:51:36.019Z,453.09091
2022-08-10T22:56:37.632Z,432.88889
2022-08-10T23:01:39.251Z,489.13274
2022-08-10T23:06:42.418Z,453.09091
2022-08-10T23:11:44.030Z,444.81301
2022-08-10T23:16:45.633Z,494
2022-08-10T23:22:03.423Z,470.49573
2022-08-10T23:27:10.273Z,448.91803
2022-08-10T23:32:15.031Z,425.25
2022-08-10T23:37:16.633Z,410.66667
2022-08-10T23:42:18.227Z,421.51938
2022-08-10T23:47:19.997Z,448.91803
2022-08-10T23:52:21.631Z,448.91803
2022-08-10T23:57:23.249Z,475.03448
